sensor_id;sensor_type;location;lat;lon;timestamp;temperature;humidity
45409;DHT22;31162;51.076;3.784;2022-08-21T00:02:22;17.20;99.90
45409;DHT22;31162;51.076;3.784;2022-08-21T00:04:48;17.10;99.90
45409;DHT22;31162;51.076;3.784;2022-08-21T00:07:14;17.00;99.90
45409;DHT22;31162;51.076;3.784;2022-08-21T00:09:40;17.00;99.90
45409;DHT22;31162;51.076;3.784;2022-08-21T00:12:06;17.10;99.90
45409;DHT22;31162;51.076;3.784;2022-08-21T00:14:32;17.10;99.90
45409;DHT22;31162;51.076;3.784;2022-08-21T00:16:59;17.10;99.90
45409;DHT22;31162;51.076;3.784;2022-08-21T00:19:24;17.10;99.90
45409;DHT22;31162;51.076;3.784;2022-08-21T00:21:54;16.90;99.90
45409;DHT22;31162;51.076;3.784;2022-08-21T00:24:21;16.70;99.90
45409;DHT22;31162;51.076;3.784;2022-08-21T00:26:47;16.60;99.90
45409;DHT22;31162;51.076;3.784;2022-08-21T00:29:13;16.50;99.90
45409;DHT22;31162;51.076;3.784;2022-08-21T00:31:40;16.30;99.90
45409;DHT22;31162;51.076;3.784;2022-08-21T00:34:06;16.30;99.90
45409;DHT22;31162;51.076;3.784;2022-08-21T00:36:33;16.20;99.90
45409;DHT22;31162;51.076;3.784;2022-08-21T00:38:59;16.20;99.90
45409;DHT22;31162;51.076;3.784;2022-08-21T00:41:25;16.20;99.90
45409;DHT22;31162;51.076;3.784;2022-08-21T00:43:52;16.20;99.90
45409;DHT22;31162;51.076;3.784;2022-08-21T00:46:21;16.20;99.90
45409;DHT22;31162;51.076;3.784;2022-08-21T00:48:47;16.10;99.90
45409;DHT22;31162;51.076;3.784;2022-08-21T00:51:17;16.10;99.90
45409;DHT22;31162;51.076;3.784;2022-08-21T00:53:51;16.00;99.90
45409;DHT22;31162;51.076;3.784;2022-08-21T00:56:18;16.10;99.90
45409;DHT22;31162;51.076;3.784;2022-08-21T00:58:45;16.00;99.90
45409;DHT22;31162;51.076;3.784;2022-08-21T01:01:11;15.80;99.90
45409;DHT22;31162;51.076;3.784;2022-08-21T01:03:38;15.70;99.90
45409;DHT22;31162;51.076;3.784;2022-08-21T01:06:06;15.70;99.90
45409;DHT22;31162;51.076;3.784;2022-08-21T01:08:33;15.60;99.90
45409;DHT22;31162;51.076;3.784;2022-08-21T01:10:59;15.50;99.90
45409;DHT22;31162;51.076;3.784;2022-08-21T01:13:27;15.60;99.90
45409;DHT22;31162;51.076;3.784;2022-08-21T01:15:57;15.50;99.90
45409;DHT22;31162;51.076;3.784;2022-08-21T01:18:25;15.50;99.90
45409;DHT22;31162;51.076;3.784;2022-08-21T01:23:26;15.50;99.90
45409;DHT22;31162;51.076;3.784;2022-08-21T01:25:51;15.50;99.90
45409;DHT22;31162;51.076;3.784;2022-08-21T01:28:17;15.30;99.90
45409;DHT22;31162;51.076;3.784;2022-08-21T01:30:45;15.30;99.90
45409;DHT22;31162;51.076;3.784;2022-08-21T01:33:10;15.40;99.90
45409;DHT22;31162;51.076;3.784;2022-08-21T01:35:36;15.30;99.90
45409;DHT22;31162;51.076;3.784;2022-08-21T01:38:02;15.40;99.90
45409;DHT22;31162;51.076;3.784;2022-08-21T01:40:28;15.30;99.90
45409;DHT22;31162;51.076;3.784;2022-08-21T01:42:54;15.30;99.90
45409;DHT22;31162;51.076;3.784;2022-08-21T01:45:19;15.20;99.90
45409;DHT22;31162;51.076;3.784;2022-08-21T01:47:45;15.10;99.90
45409;DHT22;31162;51.076;3.784;2022-08-21T01:50:17;15.10;99.90
45409;DHT22;31162;51.076;3.784;2022-08-21T01:52:43;15.10;99.90
45409;DHT22;31162;51.076;3.784;2022-08-21T01:55:10;15.10;99.90
45409;DHT22;31162;51.076;3.784;2022-08-21T01:57:37;15.10;99.90
45409;DHT22;31162;51.076;3.784;2022-08-21T02:00:08;15.10;99.90
45409;DHT22;31162;51.076;3.784;2022-08-21T02:02:36;15.10;99.90
45409;DHT22;31162;51.076;3.784;2022-08-21T02:05:03;14.90;99.90
45409;DHT22;31162;51.076;3.784;2022-08-21T02:07:39;14.90;99.90
45409;DHT22;31162;51.076;3.784;2022-08-21T02:10:06;14.90;99.90
45409;DHT22;31162;51.076;3.784;2022-08-21T02:12:32;15.00;99.90
45409;DHT22;31162;51.076;3.784;2022-08-21T02:14:57;15.00;99.90
45409;DHT22;31162;51.076;3.784;2022-08-21T02:17:23;15.00;99.90
45409;DHT22;31162;51.076;3.784;2022-08-21T02:19:50;15.00;99.90
45409;DHT22;31162;51.076;3.784;2022-08-21T02:22:15;14.90;99.90
45409;DHT22;31162;51.076;3.784;2022-08-21T02:24:41;14.90;99.90
45409;DHT22;31162;51.076;3.784;2022-08-21T02:27:06;15.00;99.90
45409;DHT22;31162;51.076;3.784;2022-08-21T02:29:32;15.00;99.90
45409;DHT22;31162;51.076;3.784;2022-08-21T02:31:58;15.00;99.90
45409;DHT22;31162;51.076;3.784;2022-08-21T02:34:24;15.10;99.90
45409;DHT22;31162;51.076;3.784;2022-08-21T02:36:50;15.00;99.90
45409;DHT22;31162;51.076;3.784;2022-08-21T02:39:18;15.00;99.90
45409;DHT22;31162;51.076;3.784;2022-08-21T02:41:43;15.20;99.90
45409;DHT22;31162;51.076;3.784;2022-08-21T02:44:09;15.20;99.90
45409;DHT22;31162;51.076;3.784;2022-08-21T02:46:35;15.20;99.90
45409;DHT22;31162;51.076;3.784;2022-08-21T02:49:00;15.30;99.90
45409;DHT22;31162;51.076;3.784;2022-08-21T02:51:26;15.30;99.90
45409;DHT22;31162;51.076;3.784;2022-08-21T02:53:51;15.30;99.90
45409;DHT22;31162;51.076;3.784;2022-08-21T02:56:20;15.30;99.90
45409;DHT22;31162;51.076;3.784;2022-08-21T02:58:48;15.30;99.90
45409;DHT22;31162;51.076;3.784;2022-08-21T03:01:15;15.20;99.90
45409;DHT22;31162;51.076;3.784;2022-08-21T03:03:43;15.00;99.90
45409;DHT22;31162;51.076;3.784;2022-08-21T03:06:12;15.00;99.90
45409;DHT22;31162;51.076;3.784;2022-08-21T03:08:38;14.90;99.90
45409;DHT22;31162;51.076;3.784;2022-08-21T03:11:04;14.80;99.90
45409;DHT22;31162;51.076;3.784;2022-08-21T03:13:30;14.80;99.90
45409;DHT22;31162;51.076;3.784;2022-08-21T03:15:57;14.90;99.90
45409;DHT22;31162;51.076;3.784;2022-08-21T03:18:23;15.00;99.90
45409;DHT22;31162;51.076;3.784;2022-08-21T03:20:49;15.00;99.90
45409;DHT22;31162;51.076;3.784;2022-08-21T03:23:16;14.90;99.90
45409;DHT22;31162;51.076;3.784;2022-08-21T03:25:43;14.80;99.90
45409;DHT22;31162;51.076;3.784;2022-08-21T03:28:15;14.80;99.90
45409;DHT22;31162;51.076;3.784;2022-08-21T03:30:43;14.80;99.90
45409;DHT22;31162;51.076;3.784;2022-08-21T03:33:09;14.80;99.90
45409;DHT22;31162;51.076;3.784;2022-08-21T03:35:34;14.80;99.90
45409;DHT22;31162;51.076;3.784;2022-08-21T03:38:00;14.70;99.90
45409;DHT22;31162;51.076;3.784;2022-08-21T03:40:26;14.80;99.90
45409;DHT22;31162;51.076;3.784;2022-08-21T03:42:52;14.80;99.90
45409;DHT22;31162;51.076;3.784;2022-08-21T03:45:19;14.90;99.90
45409;DHT22;31162;51.076;3.784;2022-08-21T03:50:18;14.90;99.90
45409;DHT22;31162;51.076;3.784;2022-08-21T03:52:43;14.90;99.90
45409;DHT22;31162;51.076;3.784;2022-08-21T03:55:10;14.90;99.90
45409;DHT22;31162;51.076;3.784;2022-08-21T03:57:36;14.90;99.90
45409;DHT22;31162;51.076;3.784;2022-08-21T04:00:03;14.90;99.90
45409;DHT22;31162;51.076;3.784;2022-08-21T04:02:29;14.90;99.90
45409;DHT22;31162;51.076;3.784;2022-08-21T04:04:55;15.00;99.90
45409;DHT22;31162;51.076;3.784;2022-08-21T04:07:21;15.00;99.90
45409;DHT22;31162;51.076;3.784;2022-08-21T04:09:47;15.00;99.90
45409;DHT22;31162;51.076;3.784;2022-08-21T04:12:12;15.00;99.90
45409;DHT22;31162;51.076;3.784;2022-08-21T04:14:38;15.00;99.90
45409;DHT22;31162;51.076;3.784;2022-08-21T04:17:04;15.00;99.90
45409;DHT22;31162;51.076;3.784;2022-08-21T04:19:30;15.00;99.90
45409;DHT22;31162;51.076;3.784;2022-08-21T04:21:57;15.00;99.90
45409;DHT22;31162;51.076;3.784;2022-08-21T04:24:22;15.00;99.90
45409;DHT22;31162;51.076;3.784;2022-08-21T04:26:48;15.10;99.90
45409;DHT22;31162;51.076;3.784;2022-08-21T04:29:14;15.10;99.90
45409;DHT22;31162;51.076;3.784;2022-08-21T04:31:40;15.10;99.90
45409;DHT22;31162;51.076;3.784;2022-08-21T04:34:05;15.10;99.90
45409;DHT22;31162;51.076;3.784;2022-08-21T04:36:32;15.10;99.90
45409;DHT22;31162;51.076;3.784;2022-08-21T04:39:01;15.10;99.90
45409;DHT22;31162;51.076;3.784;2022-08-21T04:41:30;15.10;99.90
45409;DHT22;31162;51.076;3.784;2022-08-21T04:43:56;15.10;99.90
45409;DHT22;31162;51.076;3.784;2022-08-21T04:46:22;15.20;99.90
45409;DHT22;31162;51.076;3.784;2022-08-21T04:48:48;15.30;99.90
45409;DHT22;31162;51.076;3.784;2022-08-21T04:51:35;15.40;99.90
45409;DHT22;31162;51.076;3.784;2022-08-21T04:54:06;15.40;99.90
45409;DHT22;31162;51.076;3.784;2022-08-21T04:56:48;15.40;99.90
45409;DHT22;31162;51.076;3.784;2022-08-21T04:59:19;15.40;99.90
45409;DHT22;31162;51.076;3.784;2022-08-21T05:01:46;15.30;99.90
45409;DHT22;31162;51.076;3.784;2022-08-21T05:04:17;15.30;99.90
45409;DHT22;31162;51.076;3.784;2022-08-21T05:06:44;15.40;99.90
45409;DHT22;31162;51.076;3.784;2022-08-21T05:09:13;15.50;99.90
45409;DHT22;31162;51.076;3.784;2022-08-21T05:11:39;15.50;99.90
45409;DHT22;31162;51.076;3.784;2022-08-21T05:14:06;15.60;99.90
45409;DHT22;31162;51.076;3.784;2022-08-21T05:16:31;15.70;99.90
45409;DHT22;31162;51.076;3.784;2022-08-21T05:18:57;15.70;99.90
45409;DHT22;31162;51.076;3.784;2022-08-21T05:21:23;15.70;99.90
45409;DHT22;31162;51.076;3.784;2022-08-21T05:23:49;15.80;99.90
45409;DHT22;31162;51.076;3.784;2022-08-21T05:26:15;15.90;99.90
45409;DHT22;31162;51.076;3.784;2022-08-21T05:28:40;15.90;99.90
45409;DHT22;31162;51.076;3.784;2022-08-21T05:31:06;16.00;99.90
45409;DHT22;31162;51.076;3.784;2022-08-21T05:33:31;16.00;99.90
45409;DHT22;31162;51.076;3.784;2022-08-21T05:35:57;16.10;99.90
45409;DHT22;31162;51.076;3.784;2022-08-21T05:38:24;16.10;99.90
45409;DHT22;31162;51.076;3.784;2022-08-21T05:40:52;16.10;99.90
45409;DHT22;31162;51.076;3.784;2022-08-21T05:43:18;16.20;99.90
45409;DHT22;31162;51.076;3.784;2022-08-21T05:45:45;16.40;99.90
45409;DHT22;31162;51.076;3.784;2022-08-21T05:48:18;16.40;99.90
45409;DHT22;31162;51.076;3.784;2022-08-21T05:50:45;16.50;99.90
45409;DHT22;31162;51.076;3.784;2022-08-21T05:53:12;16.60;99.90
45409;DHT22;31162;51.076;3.784;2022-08-21T05:55:38;16.70;99.90
45409;DHT22;31162;51.076;3.784;2022-08-21T05:58:04;16.70;99.90
45409;DHT22;31162;51.076;3.784;2022-08-21T06:00:30;16.80;99.90
45409;DHT22;31162;51.076;3.784;2022-08-21T06:02:57;17.00;99.90
45409;DHT22;31162;51.076;3.784;2022-08-21T06:05:23;17.60;99.90
45409;DHT22;31162;51.076;3.784;2022-08-21T06:07:49;18.30;99.90
45409;DHT22;31162;51.076;3.784;2022-08-21T06:10:15;18.80;99.90
45409;DHT22;31162;51.076;3.784;2022-08-21T06:12:40;18.80;99.90
45409;DHT22;31162;51.076;3.784;2022-08-21T06:15:06;20.40;99.90
45409;DHT22;31162;51.076;3.784;2022-08-21T06:17:32;22.80;99.90
45409;DHT22;31162;51.076;3.784;2022-08-21T06:19:58;23.30;99.90
45409;DHT22;31162;51.076;3.784;2022-08-21T06:22:23;23.30;99.90
45409;DHT22;31162;51.076;3.784;2022-08-21T06:24:49;23.50;99.90
45409;DHT22;31162;51.076;3.784;2022-08-21T06:27:15;22.80;99.90
45409;DHT22;31162;51.076;3.784;2022-08-21T06:29:43;22.00;99.90
45409;DHT22;31162;51.076;3.784;2022-08-21T06:32:11;23.40;99.90
45409;DHT22;31162;51.076;3.784;2022-08-21T06:34:39;25.80;99.90
45409;DHT22;31162;51.076;3.784;2022-08-21T06:37:05;28.50;99.90
45409;DHT22;31162;51.076;3.784;2022-08-21T06:39:32;30.70;97.80
45409;DHT22;31162;51.076;3.784;2022-08-21T06:41:58;31.80;94.20
45409;DHT22;31162;51.076;3.784;2022-08-21T06:44:25;31.80;92.90
45409;DHT22;31162;51.076;3.784;2022-08-21T06:46:51;32.70;91.80
45409;DHT22;31162;51.076;3.784;2022-08-21T06:49:16;33.20;90.60
45409;DHT22;31162;51.076;3.784;2022-08-21T06:51:42;34.00;88.00
45409;DHT22;31162;51.076;3.784;2022-08-21T06:54:08;34.50;86.80
45409;DHT22;31162;51.076;3.784;2022-08-21T06:56:34;34.80;83.60
45409;DHT22;31162;51.076;3.784;2022-08-21T06:59:02;35.30;83.10
45409;DHT22;31162;51.076;3.784;2022-08-21T07:01:28;35.30;81.70
45409;DHT22;31162;51.076;3.784;2022-08-21T07:03:53;35.80;80.10
45409;DHT22;31162;51.076;3.784;2022-08-21T07:06:19;35.80;80.20
45409;DHT22;31162;51.076;3.784;2022-08-21T07:08:45;36.90;78.70
45409;DHT22;31162;51.076;3.784;2022-08-21T07:11:19;38.00;76.30
45409;DHT22;31162;51.076;3.784;2022-08-21T07:13:47;38.90;73.90
45409;DHT22;31162;51.076;3.784;2022-08-21T07:16:14;38.80;73.10
45409;DHT22;31162;51.076;3.784;2022-08-21T07:18:40;38.40;72.40
45409;DHT22;31162;51.076;3.784;2022-08-21T07:21:06;37.10;73.50
45409;DHT22;31162;51.076;3.784;2022-08-21T07:23:35;37.10;73.70
45409;DHT22;31162;51.076;3.784;2022-08-21T07:26:02;37.80;72.80
45409;DHT22;31162;51.076;3.784;2022-08-21T07:28:29;37.80;72.40
45409;DHT22;31162;51.076;3.784;2022-08-21T07:30:56;37.40;72.70
45409;DHT22;31162;51.076;3.784;2022-08-21T07:33:23;37.00;73.20
45409;DHT22;31162;51.076;3.784;2022-08-21T07:35:49;36.30;73.60
45409;DHT22;31162;51.076;3.784;2022-08-21T07:38:15;34.80;74.60
45409;DHT22;31162;51.076;3.784;2022-08-21T07:40:41;33.70;76.80
45409;DHT22;31162;51.076;3.784;2022-08-21T07:43:07;33.20;77.60
45409;DHT22;31162;51.076;3.784;2022-08-21T07:45:33;32.90;77.40
45409;DHT22;31162;51.076;3.784;2022-08-21T07:47:58;32.70;78.70
45409;DHT22;31162;51.076;3.784;2022-08-21T07:50:25;32.80;78.10
45409;DHT22;31162;51.076;3.784;2022-08-21T07:52:51;32.60;78.90
45409;DHT22;31162;51.076;3.784;2022-08-21T07:55:18;33.00;78.70
45409;DHT22;31162;51.076;3.784;2022-08-21T07:57:45;33.50;78.00
45409;DHT22;31162;51.076;3.784;2022-08-21T08:00:14;35.00;76.40
45409;DHT22;31162;51.076;3.784;2022-08-21T08:02:44;36.70;73.90
45409;DHT22;31162;51.076;3.784;2022-08-21T08:05:11;38.10;72.20
45409;DHT22;31162;51.076;3.784;2022-08-21T08:07:37;38.90;70.70
45409;DHT22;31162;51.076;3.784;2022-08-21T08:10:04;38.70;70.20
45409;DHT22;31162;51.076;3.784;2022-08-21T08:12:37;37.50;70.90
45409;DHT22;31162;51.076;3.784;2022-08-21T08:15:03;36.40;71.90
45409;DHT22;31162;51.076;3.784;2022-08-21T08:17:29;36.00;72.90
45409;DHT22;31162;51.076;3.784;2022-08-21T08:19:58;35.80;73.00
45409;DHT22;31162;51.076;3.784;2022-08-21T08:22:25;36.10;73.10
45409;DHT22;31162;51.076;3.784;2022-08-21T08:24:52;36.80;72.30
45409;DHT22;31162;51.076;3.784;2022-08-21T08:27:18;36.20;71.70
45409;DHT22;31162;51.076;3.784;2022-08-21T08:29:45;36.20;72.30
45409;DHT22;31162;51.076;3.784;2022-08-21T08:32:11;36.00;72.30
45409;DHT22;31162;51.076;3.784;2022-08-21T08:34:38;36.60;72.10
45409;DHT22;31162;51.076;3.784;2022-08-21T08:37:06;38.00;71.10
45409;DHT22;31162;51.076;3.784;2022-08-21T08:39:32;39.10;69.60
45409;DHT22;31162;51.076;3.784;2022-08-21T08:42:30;39.80;68.10
45409;DHT22;31162;51.076;3.784;2022-08-21T08:45:13;40.70;67.90
45409;DHT22;31162;51.076;3.784;2022-08-21T08:47:52;41.10;66.60
45409;DHT22;31162;51.076;3.784;2022-08-21T08:50:48;39.50;67.10
45409;DHT22;31162;51.076;3.784;2022-08-21T08:53:20;38.70;68.30
45409;DHT22;31162;51.076;3.784;2022-08-21T08:55:48;39.60;67.80
45409;DHT22;31162;51.076;3.784;2022-08-21T08:58:23;39.40;67.10
45409;DHT22;31162;51.076;3.784;2022-08-21T09:00:51;37.30;68.90
45409;DHT22;31162;51.076;3.784;2022-08-21T09:03:18;37.20;68.90
45409;DHT22;31162;51.076;3.784;2022-08-21T09:06:01;37.70;68.20
45409;DHT22;31162;51.076;3.784;2022-08-21T09:27:42;31.70;76.30
45409;DHT22;31162;51.076;3.784;2022-08-21T09:30:08;33.60;74.20
45409;DHT22;31162;51.076;3.784;2022-08-21T09:32:37;34.50;72.10
45409;DHT22;31162;51.076;3.784;2022-08-21T09:37:33;34.10;74.00
45409;DHT22;31162;51.076;3.784;2022-08-21T09:40:01;34.80;72.50
45409;DHT22;31162;51.076;3.784;2022-08-21T09:42:30;36.50;71.30
45409;DHT22;31162;51.076;3.784;2022-08-21T09:45:11;37.60;68.70
45409;DHT22;31162;51.076;3.784;2022-08-21T09:47:37;38.30;68.70
45409;DHT22;31162;51.076;3.784;2022-08-21T09:50:21;38.70;67.40
45409;DHT22;31162;51.076;3.784;2022-08-21T09:52:49;37.50;68.90
45409;DHT22;31162;51.076;3.784;2022-08-21T09:55:30;38.80;67.80
45409;DHT22;31162;51.076;3.784;2022-08-21T09:58:15;39.50;66.10
45409;DHT22;31162;51.076;3.784;2022-08-21T10:00:41;37.80;67.30
45409;DHT22;31162;51.076;3.784;2022-08-21T10:03:17;36.30;68.80
45409;DHT22;31162;51.076;3.784;2022-08-21T10:08:24;36.10;69.20
45409;DHT22;31162;51.076;3.784;2022-08-21T10:11:11;36.30;69.50
45409;DHT22;31162;51.076;3.784;2022-08-21T10:14:14;37.40;68.20
45409;DHT22;31162;51.076;3.784;2022-08-21T10:25:35;34.80;69.90
45409;DHT22;31162;51.076;3.784;2022-08-21T10:30:45;35.50;70.00
45409;DHT22;31162;51.076;3.784;2022-08-21T10:36:16;35.80;69.20
45409;DHT22;31162;51.076;3.784;2022-08-21T10:44:48;34.50;69.50
45409;DHT22;31162;51.076;3.784;2022-08-21T10:47:11;34.10;70.10
45409;DHT22;31162;51.076;3.784;2022-08-21T10:50:19;33.60;71.20
45409;DHT22;31162;51.076;3.784;2022-08-21T10:55:25;33.20;71.90
45409;DHT22;31162;51.076;3.784;2022-08-21T10:58:19;32.70;71.30
45409;DHT22;31162;51.076;3.784;2022-08-21T11:00:49;33.30;72.30
45409;DHT22;31162;51.076;3.784;2022-08-21T11:05:51;36.90;67.30
45409;DHT22;31162;51.076;3.784;2022-08-21T11:08:28;36.50;67.70
45409;DHT22;31162;51.076;3.784;2022-08-21T11:11:01;36.30;68.60
45409;DHT22;31162;51.076;3.784;2022-08-21T11:13:48;35.70;68.10
45409;DHT22;31162;51.076;3.784;2022-08-21T11:19:08;34.70;68.60
45409;DHT22;31162;51.076;3.784;2022-08-21T11:21:48;34.40;69.70
45409;DHT22;31162;51.076;3.784;2022-08-21T11:27:01;36.50;66.50
45409;DHT22;31162;51.076;3.784;2022-08-21T11:29:34;36.40;67.00
45409;DHT22;31162;51.076;3.784;2022-08-21T11:43:43;36.30;66.70
45409;DHT22;31162;51.076;3.784;2022-08-21T11:46:24;37.70;65.00
45409;DHT22;31162;51.076;3.784;2022-08-21T11:51:48;36.00;66.70
45409;DHT22;31162;51.076;3.784;2022-08-21T11:54:27;36.10;66.90
45409;DHT22;31162;51.076;3.784;2022-08-21T11:59:43;36.20;67.50
45409;DHT22;31162;51.076;3.784;2022-08-21T12:02:18;36.90;66.80
45409;DHT22;31162;51.076;3.784;2022-08-21T12:04:53;37.20;66.30
45409;DHT22;31162;51.076;3.784;2022-08-21T12:07:42;37.90;64.70
45409;DHT22;31162;51.076;3.784;2022-08-21T12:10:12;36.90;65.30
45409;DHT22;31162;51.076;3.784;2022-08-21T12:12:41;36.10;66.70
45409;DHT22;31162;51.076;3.784;2022-08-21T12:17:57;35.40;67.50
45409;DHT22;31162;51.076;3.784;2022-08-21T12:28:23;33.60;68.40
45409;DHT22;31162;51.076;3.784;2022-08-21T12:30:50;32.90;69.50
45409;DHT22;31162;51.076;3.784;2022-08-21T12:33:35;32.20;70.60
45409;DHT22;31162;51.076;3.784;2022-08-21T12:36:06;31.40;72.10
45409;DHT22;31162;51.076;3.784;2022-08-21T12:38:52;31.20;72.60
45409;DHT22;31162;51.076;3.784;2022-08-21T12:41:27;31.20;72.40
45409;DHT22;31162;51.076;3.784;2022-08-21T12:44:07;31.40;73.10
45409;DHT22;31162;51.076;3.784;2022-08-21T12:46:45;31.40;72.60
45409;DHT22;31162;51.076;3.784;2022-08-21T12:49:52;31.60;72.10
45409;DHT22;31162;51.076;3.784;2022-08-21T12:52:32;31.70;72.00
45409;DHT22;31162;51.076;3.784;2022-08-21T12:55:01;31.70;72.40
45409;DHT22;31162;51.076;3.784;2022-08-21T12:57:28;31.80;72.60
45409;DHT22;31162;51.076;3.784;2022-08-21T13:00:03;31.50;71.80
45409;DHT22;31162;51.076;3.784;2022-08-21T13:02:37;31.10;72.40
45409;DHT22;31162;51.076;3.784;2022-08-21T13:05:06;30.90;72.90
45409;DHT22;31162;51.076;3.784;2022-08-21T13:07:36;30.70;73.10
45409;DHT22;31162;51.076;3.784;2022-08-21T13:10:14;30.20;73.60
45409;DHT22;31162;51.076;3.784;2022-08-21T13:12:42;29.60;73.60
45409;DHT22;31162;51.076;3.784;2022-08-21T13:15:08;29.20;75.50
45409;DHT22;31162;51.076;3.784;2022-08-21T13:17:36;29.10;76.20
45409;DHT22;31162;51.076;3.784;2022-08-21T13:20:09;29.10;76.40
45409;DHT22;31162;51.076;3.784;2022-08-21T13:22:43;29.00;76.60
45409;DHT22;31162;51.076;3.784;2022-08-21T13:25:15;29.40;76.90
45409;DHT22;31162;51.076;3.784;2022-08-21T13:27:42;29.90;76.10
45409;DHT22;31162;51.076;3.784;2022-08-21T13:30:10;30.20;75.60
45409;DHT22;31162;51.076;3.784;2022-08-21T13:32:44;30.40;74.60
45409;DHT22;31162;51.076;3.784;2022-08-21T13:35:12;30.50;74.40
45409;DHT22;31162;51.076;3.784;2022-08-21T13:37:40;30.40;75.00
45409;DHT22;31162;51.076;3.784;2022-08-21T13:40:09;30.10;75.20
45409;DHT22;31162;51.076;3.784;2022-08-21T13:42:39;30.20;76.00
45409;DHT22;31162;51.076;3.784;2022-08-21T13:45:13;30.20;74.00
45409;DHT22;31162;51.076;3.784;2022-08-21T13:47:39;29.90;75.30
45409;DHT22;31162;51.076;3.784;2022-08-21T13:50:05;29.60;74.70
45409;DHT22;31162;51.076;3.784;2022-08-21T13:52:32;29.50;74.60
45409;DHT22;31162;51.076;3.784;2022-08-21T13:55:12;29.50;74.50
45409;DHT22;31162;51.076;3.784;2022-08-21T13:57:38;29.30;75.20
45409;DHT22;31162;51.076;3.784;2022-08-21T14:00:26;29.30;75.10
45409;DHT22;31162;51.076;3.784;2022-08-21T14:02:53;29.50;75.20
45409;DHT22;31162;51.076;3.784;2022-08-21T14:05:29;29.70;75.70
45409;DHT22;31162;51.076;3.784;2022-08-21T14:08:10;29.90;75.20
45409;DHT22;31162;51.076;3.784;2022-08-21T14:10:43;30.10;75.00
45409;DHT22;31162;51.076;3.784;2022-08-21T14:13:38;30.30;74.80
45409;DHT22;31162;51.076;3.784;2022-08-21T14:21:37;30.50;73.60
45409;DHT22;31162;51.076;3.784;2022-08-21T14:24:08;30.60;74.10
45409;DHT22;31162;51.076;3.784;2022-08-21T14:26:46;30.70;73.90
45409;DHT22;31162;51.076;3.784;2022-08-21T14:29:16;30.50;74.00
45409;DHT22;31162;51.076;3.784;2022-08-21T14:31:42;30.40;74.50
45409;DHT22;31162;51.076;3.784;2022-08-21T14:34:10;30.50;74.40
45409;DHT22;31162;51.076;3.784;2022-08-21T14:36:37;30.60;74.60
45409;DHT22;31162;51.076;3.784;2022-08-21T14:39:02;30.60;74.40
45409;DHT22;31162;51.076;3.784;2022-08-21T14:41:28;30.60;74.80
45409;DHT22;31162;51.076;3.784;2022-08-21T14:43:56;30.50;74.40
45409;DHT22;31162;51.076;3.784;2022-08-21T14:46:27;30.50;75.70
45409;DHT22;31162;51.076;3.784;2022-08-21T14:48:53;30.50;74.80
45409;DHT22;31162;51.076;3.784;2022-08-21T14:51:19;30.60;74.70
45409;DHT22;31162;51.076;3.784;2022-08-21T14:53:45;30.60;74.80
45409;DHT22;31162;51.076;3.784;2022-08-21T14:56:11;30.40;75.00
45409;DHT22;31162;51.076;3.784;2022-08-21T14:58:42;30.30;75.10
45409;DHT22;31162;51.076;3.784;2022-08-21T15:01:09;30.20;74.80
45409;DHT22;31162;51.076;3.784;2022-08-21T15:03:39;30.10;75.70
45409;DHT22;31162;51.076;3.784;2022-08-21T15:06:05;30.20;75.50
45409;DHT22;31162;51.076;3.784;2022-08-21T15:08:34;30.10;75.10
45409;DHT22;31162;51.076;3.784;2022-08-21T15:11:01;30.10;75.30
45409;DHT22;31162;51.076;3.784;2022-08-21T15:13:28;30.00;75.80
45409;DHT22;31162;51.076;3.784;2022-08-21T15:15:53;29.90;75.60
45409;DHT22;31162;51.076;3.784;2022-08-21T15:18:20;29.90;76.00
45409;DHT22;31162;51.076;3.784;2022-08-21T15:20:47;29.90;76.00
45409;DHT22;31162;51.076;3.784;2022-08-21T15:23:13;29.70;75.00
45409;DHT22;31162;51.076;3.784;2022-08-21T15:25:41;29.40;76.40
45409;DHT22;31162;51.076;3.784;2022-08-21T15:28:07;29.40;77.20
45409;DHT22;31162;51.076;3.784;2022-08-21T15:30:34;29.40;77.10
45409;DHT22;31162;51.076;3.784;2022-08-21T15:32:59;29.50;77.50
45409;DHT22;31162;51.076;3.784;2022-08-21T15:35:25;29.40;76.90
45409;DHT22;31162;51.076;3.784;2022-08-21T15:37:51;29.40;77.60
45409;DHT22;31162;51.076;3.784;2022-08-21T15:40:17;29.40;78.00
45409;DHT22;31162;51.076;3.784;2022-08-21T15:42:42;29.50;77.40
45409;DHT22;31162;51.076;3.784;2022-08-21T15:45:10;29.60;77.30
45409;DHT22;31162;51.076;3.784;2022-08-21T15:47:37;29.80;77.40
45409;DHT22;31162;51.076;3.784;2022-08-21T15:50:06;29.90;76.00
45409;DHT22;31162;51.076;3.784;2022-08-21T15:52:32;30.00;76.90
45409;DHT22;31162;51.076;3.784;2022-08-21T15:54:58;30.00;76.10
45409;DHT22;31162;51.076;3.784;2022-08-21T15:57:25;29.90;75.80
45409;DHT22;31162;51.076;3.784;2022-08-21T15:59:56;29.60;76.40
45409;DHT22;31162;51.076;3.784;2022-08-21T16:02:25;29.60;77.60
45409;DHT22;31162;51.076;3.784;2022-08-21T16:04:51;29.60;77.70
45409;DHT22;31162;51.076;3.784;2022-08-21T16:07:17;29.60;77.70
45409;DHT22;31162;51.076;3.784;2022-08-21T16:09:43;29.60;76.90
45409;DHT22;31162;51.076;3.784;2022-08-21T16:12:13;29.50;78.20
45409;DHT22;31162;51.076;3.784;2022-08-21T16:14:42;29.40;76.70
45409;DHT22;31162;51.076;3.784;2022-08-21T16:17:08;29.40;76.70
45409;DHT22;31162;51.076;3.784;2022-08-21T16:19:34;29.40;76.00
45409;DHT22;31162;51.076;3.784;2022-08-21T16:22:01;29.30;75.90
45409;DHT22;31162;51.076;3.784;2022-08-21T16:24:27;29.30;76.30
45409;DHT22;31162;51.076;3.784;2022-08-21T16:26:56;29.20;76.70
45409;DHT22;31162;51.076;3.784;2022-08-21T16:29:22;29.10;77.70
45409;DHT22;31162;51.076;3.784;2022-08-21T16:31:50;29.00;77.10
45409;DHT22;31162;51.076;3.784;2022-08-21T16:34:17;28.90;77.30
45409;DHT22;31162;51.076;3.784;2022-08-21T16:36:45;28.80;77.50
45409;DHT22;31162;51.076;3.784;2022-08-21T16:39:11;28.50;78.20
45409;DHT22;31162;51.076;3.784;2022-08-21T16:41:36;28.30;78.30
45409;DHT22;31162;51.076;3.784;2022-08-21T16:44:03;28.20;78.80
45409;DHT22;31162;51.076;3.784;2022-08-21T16:46:33;27.90;79.90
45409;DHT22;31162;51.076;3.784;2022-08-21T16:48:59;27.80;80.10
45409;DHT22;31162;51.076;3.784;2022-08-21T16:51:25;27.70;80.10
45409;DHT22;31162;51.076;3.784;2022-08-21T16:53:51;27.60;80.80
45409;DHT22;31162;51.076;3.784;2022-08-21T16:56:17;27.60;80.40
45409;DHT22;31162;51.076;3.784;2022-08-21T16:58:46;27.50;80.50
45409;DHT22;31162;51.076;3.784;2022-08-21T17:01:16;27.40;81.20
45409;DHT22;31162;51.076;3.784;2022-08-21T17:03:44;27.20;82.10
45409;DHT22;31162;51.076;3.784;2022-08-21T17:06:13;26.90;82.90
45409;DHT22;31162;51.076;3.784;2022-08-21T17:08:39;26.70;83.50
45409;DHT22;31162;51.076;3.784;2022-08-21T17:11:07;26.60;84.10
45409;DHT22;31162;51.076;3.784;2022-08-21T17:13:33;26.40;84.10
45409;DHT22;31162;51.076;3.784;2022-08-21T17:15:59;26.10;85.30